Flight Track Log - Related Links

Times and Time Zones

All times are in EDT time to prevent confusion due to time zone crossing. See the XSR387 flight status page for this flight to view local times or setup timezone preferences in your user account.


Time Position Orientation Groundspeed Altitude Reporting Facility
EDT Latitude Longitude Course Direction KTS MPH feet Rate Location/Type
Fri 02:14:50 PM 36.6478 -94.7864 270° West 134 154 2,900  Level Kansas City Center
Fri 02:15:52 PM 36.6653 -94.8303 296° West 141 162 4,200 1,355 Climbing Kansas City Center
Fri 02:16:54 PM 36.6872 -94.8828 298° West 142 163 5,700 1,415 Climbing Kansas City Center
Fri 02:17:55 PM 36.7042 -94.9275 295° West 142 163 7,100 1,415 Climbing Kansas City Center
Fri 02:18:57 PM 36.7250 -94.9697 302° West 143 165 8,600 1,452 Climbing Kansas City Center
Fri 02:19:59 PM 36.7464 -95.0067 306° West 138 159 10,100 1,210 Climbing Kansas City Center
Fri 02:20:00 PM 36.7667 -95.0910 270° West  Level FlightAware Approximate
Fri 02:21:01 PM 36.7658 -95.0483 300° West 137 158 11,100  Level Kansas City Center
Fri 02:22:03 PM 36.7883 -95.0986 299° West 148 170 11,900 435 Climbing Kansas City Center
Fri 02:23:05 PM 36.8206 -95.1728 299° West 188 216 12,000 48 Climbing Kansas City Center
Fri 02:24:07 PM 36.8531 -95.2389 302° West 214 246 12,000  Level Kansas City Center
Fri 02:25:09 PM 36.8842 -95.3050 300° West 220 253 12,000  Level Kansas City Center
Fri 02:26:11 PM 36.9147 -95.3700 300° West 220 253 12,000  Level Kansas City Center
Fri 02:27:13 PM 36.9453 -95.4339 301° West 217 250 12,000  Level Kansas City Center
Fri 02:28:15 PM 36.9753 -95.4989 300° West 215 247 12,000  Level Kansas City Center
Fri 02:29:17 PM 37.0039 -95.5617 300° West 209 241 12,000  Level Kansas City Center
Fri 02:30:19 PM 37.0392 -95.6353 301° West 207 238 12,000  Level Kansas City Center
Fri 02:31:20 PM 37.0675 -95.6978 300° West 205 236 12,000 -244 Level Kansas City Center
Fri 02:32:22 PM 37.0958 -95.7633 298° West 211 243 11,500 -484 Descending Kansas City Center
Fri 02:33:24 PM 37.1253 -95.8314 299° West 218 251 11,000 -484 Descending Kansas City Center
Fri 02:34:26 PM 37.1558 -95.8967 300° West 218 251 10,500 -435 Descending Kansas City Center
Fri 02:35:28 PM 37.1858 -95.9597 301° West 213 245 10,100 -242 Descending Kansas City Center
Fri 02:36:30 PM 37.2194 -96.0325 300° West 202 232 10,000 -48 Descending Kansas City Center
Fri 02:37:32 PM 37.2456 -96.0931 298° West 196 226 10,000  Level Kansas City Center
Fri 02:38:34 PM 37.2711 -96.1564 297° West 201 231 10,000  Level Kansas City Center
Fri 02:39:36 PM 37.2983 -96.2192 299° West 203 234 10,000  Level Kansas City Center
Fri 02:40:37 PM 37.3250 -96.2806 299° West 201 231 10,000  Level Kansas City Center
Fri 02:41:39 PM 37.3525 -96.3431 299° West 203 234 10,000  Level Kansas City Center
Fri 02:42:41 PM 37.3828 -96.4028 303° West 201 231 10,000  Level Kansas City Center
Fri 02:43:43 PM 37.4133 -96.4661 301° West 202 232 10,000 -435 Level Kansas City Center
Fri 02:44:45 PM 37.4411 -96.5294 299° West 204 235 9,100 -1,016 Descending Kansas City Center
Fri 02:45:47 PM 37.4661 -96.5942 296° West 206 237 7,900 -1,377 Descending Kansas City Center
Fri 02:46:47 PM 37.4953 -96.6558 301° West 173 199 6,300 -1,240 Descending Kansas City Center
Fri 02:47:48 PM 37.5186 -96.6994 304° West 142 163 5,400 -843 Descending Kansas City Center
Fri 02:48:48 PM 37.5422 -96.7433 304° West 144 166 4,600 -714 Descending Kansas City Center
Fri 02:49:54 PM 37.5633 -96.7892 300° West 147 169 3,900 -656 Descending Kansas City Center
Fri 02:50:56 PM 37.5833 -96.8369 298° West 136 157 3,200 -414 Descending Kansas City Center
Fri 02:51:50 PM 37.5981 -96.8769 295° West 142 163 3,100 -52 Descending Kansas City Center
Fri 02:52:51 PM 37.6114 -96.9250 289° West 149 171 3,100 50 Level Kansas City Center
Fri 02:53:51 PM 37.6186 -96.9767 280° West 149 171 3,200  Climbing Kansas City Center
Fri 02:54:52 PM 37.6261 -97.0283 280° West 155 178 3,100 -45 Descending Kansas City Center
Fri 02:56:05 PM 37.6369 -97.0953 282° West 157 181 3,100  Level Kansas City Center
Fri 02:56:47 PM 37.6525 -97.1244 304° West 151 174 3,100  Level Kansas City Center
Fri 02:57:07 PM 37.6575 -97.1381 295° West 153 176 3,100  Level Kansas City Center
Fri 02:58:00 PM 37.6825 -97.1728 312° West 140 161 3,100 -209 Level Kansas City Center
Fri 02:59:02 PM 37.7022 -97.2014 311° West 102 117 2,700 -446 Descending Kansas City Center
Fri 03:00:01 PM 37.7214 -97.2247 316° Northwest 98 113 2,200 -429 Descending Kansas City Center
Fri 03:01:08 PM 37.7486 -97.2231 North 88 101 1,800 -198 Descending Kansas City Center
Fri 03:02:02 PM 37.7486 -97.2231 72° East 88 101 1,800  Level Kansas City Center

Login

Don't have an account? Register now (free) for customized features, flight alerts, and more!